Time;durP1;ratioP1;P1;durP2;ratioP2;P2;SDS_P1;SDS_P2;PMS_P1;PMS_P2;Temp;Humidity;BMP_temperature;BMP_pressure;BME280_temperature;BME280_humidity;BME280_pressure;Samples;Min_cycle;Max_cycle;Signal;HPM_P1;HPM_P2
2021/12/30 00:02:14;;;;;;;;;1.67;1.67;;;;;14.77;89.66;101179.00;5099350;27;45518;-78
2021/12/30 00:04:39;;;;;;;;;0.00;0.00;;;;;14.93;89.71;101209.22;5099468;27;45356;-79
2021/12/30 00:07:05;;;;;;;;;1.00;1.00;;;;;14.86;89.49;101195.78;5099693;27;45543;-78
2021/12/30 00:09:30;;;;;;;;;1.00;1.00;;;;;14.81;89.33;101190.19;5099362;27;45218;-79
2021/12/30 00:11:56;;;;;;;;;0.00;0.00;;;;;14.84;89.51;101200.50;5097319;27;45746;-78
2021/12/30 00:14:22;;;;;;;;;0.00;0.00;;;;;14.93;89.23;101211.09;5098338;27;45419;-79
2021/12/30 00:16:47;;;;;;;;;0.00;0.00;;;;;14.85;89.38;101204.00;5099467;27;45341;-78
2021/12/30 00:19:12;;;;;;;;;1.00;1.00;;;;;14.89;89.56;101206.13;5098138;27;45533;-78
2021/12/30 00:21:39;;;;;;;;;1.00;1.00;;;;;14.86;89.37;101203.81;5099219;27;45423;-78
2021/12/30 00:24:05;;;;;;;;;0.00;0.00;;;;;14.89;89.15;101216.81;5098029;27;45384;-78
2021/12/30 00:26:31;;;;;;;;;0.00;0.00;;;;;14.73;89.49;101193.78;5099193;27;45484;-78
2021/12/30 00:28:57;;;;;;;;;0.00;0.00;;;;;14.79;89.55;101194.91;5102419;27;45615;-78
2021/12/30 00:31:23;;;;;;;;;1.00;1.00;;;;;14.89;89.15;101221.34;5102714;27;45488;-78
2021/12/30 00:33:49;;;;;;;;;0.00;0.00;;;;;14.87;89.27;101218.84;5102721;27;45286;-78
2021/12/30 00:36:14;;;;;;;;;1.00;1.00;;;;;14.83;89.53;101212.22;5103724;27;45214;-79
2021/12/30 00:38:42;;;;;;;;;2.00;1.00;;;;;14.83;89.39;101208.72;5103304;27;46277;-78
2021/12/30 00:41:07;;;;;;;;;0.00;0.00;;;;;14.89;89.56;101210.63;5102473;27;45485;-79
2021/12/30 00:43:33;;;;;;;;;1.00;1.00;;;;;14.88;89.33;101215.16;5100965;27;45851;-78
2021/12/30 00:45:59;;;;;;;;;0.00;0.00;;;;;14.90;89.22;101209.59;5101792;27;45403;-78
2021/12/30 00:48:25;;;;;;;;;0.33;0.33;;;;;14.85;89.29;101201.34;5102790;27;45751;-78
2021/12/30 00:50:51;;;;;;;;;1.00;1.00;;;;;14.93;89.22;101211.91;5102346;27;45377;-78
2021/12/30 00:53:17;;;;;;;;;0.00;0.00;;;;;14.91;89.40;101215.78;5102413;27;45475;-78
2021/12/30 00:55:43;;;;;;;;;0.33;0.33;;;;;14.87;89.52;101228.72;5102550;27;45294;-78
2021/12/30 00:58:09;;;;;;;;;1.00;1.00;;;;;14.89;89.40;101237.38;5102220;27;45441;-78
2021/12/30 01:00:37;;;;;;;;;0.00;0.00;;;;;14.90;89.18;101236.38;5102175;27;45324;-78
2021/12/30 01:03:03;;;;;;;;;0.00;0.00;;;;;14.92;89.51;101244.19;5101154;27;45456;-78
2021/12/30 01:05:29;;;;;;;;;0.33;0.33;;;;;14.85;89.15;101239.59;5103128;27;45443;-78
2021/12/30 01:07:54;;;;;;;;;1.33;1.00;;;;;14.92;89.13;101250.38;5102136;27;45291;-78
2021/12/30 01:10:23;;;;;;;;;1.00;1.00;;;;;14.92;89.06;101258.41;5102067;27;46230;-78
2021/12/30 01:12:48;;;;;;;;;0.00;0.00;;;;;14.86;89.39;101249.31;5102022;27;45335;-78
2021/12/30 01:15:17;;;;;;;;;0.00;0.00;;;;;14.82;89.28;101236.50;5100955;27;45322;-80
2021/12/30 01:17:52;;;;;;;;;2.00;0.33;;;;;14.92;89.24;101254.91;5102201;27;45327;-78
2021/12/30 01:20:20;;;;;;;;;0.00;0.00;;;;;14.92;89.15;101265.59;5095027;27;46100;-78
2021/12/30 01:22:47;;;;;;;;;0.33;0.33;;;;;14.82;89.31;101252.56;5102114;27;45296;-78
2021/12/30 01:25:14;;;;;;;;;0.00;0.00;;;;;14.89;89.26;101262.31;5101964;27;45291;-78
2021/12/30 01:27:40;;;;;;;;;1.00;1.00;;;;;14.93;89.08;101278.00;5100424;27;46196;-78
2021/12/30 01:30:09;;;;;;;;;0.33;0.33;;;;;14.90;88.95;101276.50;5100418;27;47014;-78
2021/12/30 01:32:35;;;;;;;;;1.00;1.00;;;;;14.86;88.95;101276.06;5101764;27;45366;-78
2021/12/30 01:35:03;;;;;;;;;0.33;0.00;;;;;14.89;89.18;101277.53;5102607;27;45428;-79
2021/12/30 01:37:28;;;;;;;;;0.00;0.00;;;;;14.91;89.58;101291.56;5103724;27;45428;-78
2021/12/30 01:39:54;;;;;;;;;1.00;1.00;;;;;14.91;89.53;101294.25;5100143;27;45958;-78
2021/12/30 01:42:19;;;;;;;;;0.33;0.33;;;;;14.86;89.37;101292.13;5100100;27;45407;-78
2021/12/30 01:44:45;;;;;;;;;1.00;1.00;;;;;14.88;89.44;101298.09;5101730;27;45274;-78
2021/12/30 01:47:11;;;;;;;;;0.33;0.33;;;;;14.85;89.26;101292.31;5101020;27;46212;-78
2021/12/30 01:49:37;;;;;;;;;1.67;1.00;;;;;14.77;89.76;101291.38;5101400;27;45439;-78
2021/12/30 01:52:03;;;;;;;;;1.67;1.67;;;;;14.85;89.30;101311.84;5101807;27;45415;-79
2021/12/30 01:54:29;;;;;;;;;1.00;1.00;;;;;14.84;89.65;101307.53;5100145;27;45274;-78
2021/12/30 01:57:01;;;;;;;;;2.33;2.33;;;;;14.84;89.59;101310.22;5102048;27;45357;-78
2021/12/30 01:59:27;;;;;;;;;1.00;1.00;;;;;14.74;89.94;101293.59;5099894;27;47749;-78
2021/12/30 02:01:56;;;;;;;;;3.00;2.00;;;;;14.79;89.87;101312.63;5099881;27;45406;-79
2021/12/30 02:04:26;;;;;;;;;1.00;1.00;;;;;14.77;90.20;101314.63;5100278;27;45196;-79
2021/12/30 02:06:53;;;;;;;;;1.00;1.00;;;;;14.70;89.86;101295.00;5101155;27;46014;-79
2021/12/30 02:09:20;;;;;;;;;2.00;2.00;;;;;14.81;90.23;101317.81;5101765;27;45418;-79
2021/12/30 02:11:46;;;;;;;;;1.67;1.67;;;;;14.81;89.84;101312.44;5094287;27;45908;-79
2021/12/30 02:14:12;;;;;;;;;0.67;0.67;;;;;14.79;89.99;101301.09;5099812;27;45259;-78
2021/12/30 02:16:37;;;;;;;;;1.67;1.67;;;;;14.79;89.79;101303.78;5099930;27;45998;-79
2021/12/30 02:19:03;;;;;;;;;1.00;1.00;;;;;14.82;90.15;101320.28;5099668;27;47059;-79
2021/12/30 02:21:29;;;;;;;;;2.33;2.33;;;;;14.81;90.12;101326.63;5101940;27;45385;-79
2021/12/30 02:23:57;;;;;;;;;2.00;2.00;;;;;14.81;90.25;101328.50;5099768;27;45366;-79
2021/12/30 02:26:22;;;;;;;;;2.33;2.00;;;;;14.77;90.01;101328.00;5099873;27;46074;-79
2021/12/30 02:28:48;;;;;;;;;4.00;2.67;;;;;14.76;90.15;101329.84;5099255;27;47095;-79
2021/12/30 02:31:17;;;;;;;;;2.00;2.00;;;;;14.67;90.04;101314.94;5100876;27;45310;-79
2021/12/30 02:33:44;;;;;;;;;2.00;2.00;;;;;14.80;90.24;101334.84;5100956;27;45640;-79
2021/12/30 02:36:10;;;;;;;;;3.00;3.00;;;;;14.74;90.17;101326.53;5101570;27;45342;-78
2021/12/30 02:38:36;;;;;;;;;2.00;2.00;;;;;14.68;90.01;101313.91;5102649;27;45918;-79
2021/12/30 02:41:04;;;;;;;;;3.00;3.00;;;;;14.71;90.22;101324.25;5099398;27;45421;-79
2021/12/30 02:43:31;;;;;;;;;2.33;2.33;;;;;14.74;90.28;101334.56;5100566;27;45313;-79
2021/12/30 02:45:58;;;;;;;;;3.00;3.00;;;;;14.73;90.36;101340.09;5100642;27;45459;-79
2021/12/30 02:48:30;;;;;;;;;3.33;3.33;;;;;14.72;90.25;101339.28;5100608;27;45307;-79
2021/12/30 02:51:00;;;;;;;;;3.67;3.67;;;;;14.69;90.60;101333.47;5100786;27;45517;-79
2021/12/30 02:53:25;;;;;;;;;4.00;3.00;;;;;14.64;90.42;101331.38;5099188;27;45501;-79
2021/12/30 02:55:53;;;;;;;;;4.33;4.00;;;;;14.68;90.55;101332.63;5100441;27;45433;-79
2021/12/30 02:58:20;;;;;;;;;4.00;4.00;;;;;14.66;90.75;101334.66;5100063;27;45442;-79
2021/12/30 03:00:47;;;;;;;;;5.00;5.00;;;;;14.70;90.71;101349.31;5100395;27;45597;-79
2021/12/30 03:03:20;;;;;;;;;6.00;6.00;;;;;14.68;90.70;101348.69;5091667;27;45288;-79
2021/12/30 03:05:47;;;;;;;;;6.00;6.00;;;;;14.64;90.49;101345.53;5099652;27;46416;-79
2021/12/30 03:08:12;;;;;;;;;5.33;5.33;;;;;14.59;90.78;101339.94;5100317;27;46203;-79
2021/12/30 03:10:38;;;;;;;;;6.33;6.33;;;;;14.67;90.96;101357.75;5099040;27;45380;-79
2021/12/30 03:13:08;;;;;;;;;4.00;4.00;;;;;14.67;90.96;101354.22;5100327;27;45297;-79
2021/12/30 03:15:35;;;;;;;;;5.33;4.67;;;;;14.62;90.80;101352.09;5098992;27;46564;-79
2021/12/30 03:18:01;;;;;;;;;3.00;3.00;;;;;14.62;90.85;101344.09;5100026;27;46346;-80
2021/12/30 03:20:27;;;;;;;;;4.00;4.00;;;;;14.64;90.97;101358.94;5100865;27;45413;-78
2021/12/30 03:22:52;;;;;;;;;2.67;2.67;;;;;14.57;90.92;101351.81;5100242;27;45321;-79
2021/12/30 03:25:18;;;;;;;;;4.67;4.67;;;;;14.51;91.24;101346.22;5100047;27;45439;-79
2021/12/30 03:27:44;;;;;;;;;3.00;3.00;;;;;14.52;91.01;101342.50;5100553;27;45328;-79
2021/12/30 03:30:14;;;;;;;;;5.00;3.00;;;;;14.63;90.97;101362.63;5100608;27;45228;-79
2021/12/30 03:32:39;;;;;;;;;4.33;3.00;;;;;14.30;90.75;101311.38;5100879;27;45394;-79
2021/12/30 03:35:05;;;;;;;;;3.33;3.00;;;;;14.60;90.52;101364.81;5100752;27;45316;-79
2021/12/30 03:37:31;;;;;;;;;2.00;2.00;;;;;14.54;91.00;101350.34;5110090;27;45332;-79
2021/12/30 03:39:56;;;;;;;;;3.00;2.33;;;;;14.21;91.00;101303.44;5121282;27;45438;-79
2021/12/30 03:42:21;;;;;;;;;2.00;2.00;;;;;14.65;90.69;101365.13;5121324;27;45472;-79
2021/12/30 03:44:48;;;;;;;;;2.00;2.00;;;;;14.64;91.03;101372.28;5121359;27;45306;-79
2021/12/30 03:47:17;;;;;;;;;3.00;1.00;;;;;14.54;90.44;101350.34;5119836;27;46128;-79
2021/12/30 03:49:45;;;;;;;;;2.00;2.00;;;;;14.58;90.96;101353.50;5121255;27;45385;-79
2021/12/30 03:52:15;;;;;;;;;1.00;1.00;;;;;14.28;90.54;101303.56;5121393;27;45321;-79
2021/12/30 03:54:42;;;;;;;;;3.00;2.00;;;;;14.63;90.67;101362.63;5120997;27;45302;-79
2021/12/30 03:57:08;;;;;;;;;2.00;2.00;;;;;14.62;90.63;101352.09;5120887;27;45469;-79
2021/12/30 03:59:34;;;;;;;;;1.00;1.00;;;;;14.62;90.67;101358.31;5121116;27;45342;-79
2021/12/30 04:02:00;;;;;;;;;1.33;0.33;;;;;14.63;90.35;101357.28;5120385;27;45851;-79
2021/12/30 04:04:25;;;;;;;;;0.00;0.00;;;;;14.63;90.60;101359.09;5121007;27;45425;-79
2021/12/30 04:06:51;;;;;;;;;1.00;1.00;;;;;14.60;90.94;101357.63;5121083;27;45364;-79
2021/12/30 04:09:16;;;;;;;;;2.00;2.00;;;;;14.67;90.54;101367.59;5119541;27;45446;-79
2021/12/30 04:11:41;;;;;;;;;1.33;0.67;;;;;14.65;90.31;101359.75;5121200;27;45239;-79
2021/12/30 04:14:07;;;;;;;;;0.67;0.67;;;;;14.62;90.59;101362.81;5120679;27;45277;-79
2021/12/30 04:16:34;;;;;;;;;1.00;1.00;;;;;14.61;90.41;101361.97;5120860;27;46604;-79
2021/12/30 04:18:59;;;;;;;;;0.00;0.00;;;;;14.64;90.67;101361.59;5121126;27;45242;-79
2021/12/30 04:21:25;;;;;;;;;0.00;0.00;;;;;14.68;90.32;101367.41;5120975;27;45171;-79
2021/12/30 04:23:51;;;;;;;;;0.00;0.00;;;;;14.64;90.37;101369.63;5120763;27;45398;-79
2021/12/30 04:26:16;;;;;;;;;0.00;0.00;;;;;14.67;90.19;101376.47;5120742;27;46128;-79
2021/12/30 04:28:42;;;;;;;;;0.00;0.00;;;;;14.65;90.35;101373.13;5119136;27;45316;-79
2021/12/30 04:31:07;;;;;;;;;0.00;0.00;;;;;14.61;90.58;101358.47;5120971;27;45262;-79
2021/12/30 04:33:32;;;;;;;;;1.00;0.00;;;;;14.20;90.36;101298.28;5120715;27;45374;-79
2021/12/30 04:35:59;;;;;;;;;0.67;0.67;;;;;14.66;90.04;101357.94;5120747;27;45982;-79
2021/12/30 04:38:27;;;;;;;;;0.00;0.00;;;;;14.58;90.32;101346.28;5103637;27;45384;-79
2021/12/30 04:40:53;;;;;;;;;0.00;0.00;;;;;14.66;90.12;101361.41;5100226;27;45305;-79
2021/12/30 04:43:19;;;;;;;;;1.00;1.00;;;;;14.60;90.24;101351.44;5098275;27;47292;-79
2021/12/30 04:45:46;;;;;;;;;0.00;0.00;;;;;14.64;90.42;101364.28;5099906;27;45601;-78
2021/12/30 04:48:12;;;;;;;;;0.00;0.00;;;;;14.64;90.03;101358.94;5098543;27;45709;-79
2021/12/30 04:50:37;;;;;;;;;0.00;0.00;;;;;14.60;90.12;101356.81;5099980;27;45342;-79
2021/12/30 04:53:03;;;;;;;;;0.00;0.00;;;;;14.60;90.13;101354.13;5099794;27;45403;-79
2021/12/30 04:55:28;;;;;;;;;0.00;0.00;;;;;14.60;90.15;101363.00;5099981;27;45394;-79
2021/12/30 04:57:54;;;;;;;;;0.00;0.00;;;;;14.59;89.92;101364.00;5099698;27;45294;-79
2021/12/30 05:00:19;;;;;;;;;0.00;0.00;;;;;14.59;90.18;101366.69;5099907;27;45297;-79
2021/12/30 05:05:49;;;;;;;;;0.00;0.00;;;;;14.47;89.99;101352.13;5076882;28;46420;-79
2021/12/30 05:08:17;;;;;;;;;0.00;0.00;;;;;14.61;90.09;101372.66;5090705;27;45358;-79
2021/12/30 05:10:42;;;;;;;;;0.33;0.33;;;;;14.56;89.76;101372.41;5099814;27;45254;-79
2021/12/30 05:13:09;;;;;;;;;0.00;0.00;;;;;14.58;90.10;101390.94;5098659;27;46307;-79
2021/12/30 05:15:36;;;;;;;;;0.00;0.00;;;;;14.58;89.90;101401.66;5101789;27;48226;-80
2021/12/30 05:18:02;;;;;;;;;0.67;0.00;;;;;14.59;90.21;101405.97;5102886;27;45337;-77
2021/12/30 05:20:27;;;;;;;;;1.00;0.00;;;;;14.49;89.79;101392.88;5103218;27;45307;-79
2021/12/30 05:22:52;;;;;;;;;0.00;0.00;;;;;14.51;89.87;101389.00;5101612;27;47362;-79
2021/12/30 05:25:19;;;;;;;;;0.00;0.00;;;;;14.57;89.98;101408.00;5101696;27;47417;-79
2021/12/30 05:27:45;;;;;;;;;0.00;0.00;;;;;14.53;89.92;101404.88;5101448;27;45328;-80
2021/12/30 05:30:12;;;;;;;;;0.00;0.00;;;;;14.49;90.04;101400.91;5102745;27;45339;-79
2021/12/30 05:32:38;;;;;;;;;1.33;1.33;;;;;14.44;89.71;101392.59;5102847;27;45365;-79
2021/12/30 05:35:06;;;;;;;;;0.00;0.00;;;;;14.50;89.87;101403.41;5102810;27;45317;-79
2021/12/30 05:37:31;;;;;;;;;0.00;0.00;;;;;14.51;89.90;101422.94;5110717;27;45351;-79
2021/12/30 05:39:56;;;;;;;;;1.00;1.00;;;;;14.44;89.56;101409.50;5123529;27;45348;-79
2021/12/30 05:42:23;;;;;;;;;0.00;0.00;;;;;14.46;90.17;101414.66;5121642;27;45795;-79
2021/12/30 05:44:55;;;;;;;;;1.67;0.00;;;;;14.44;89.81;101417.50;5121970;27;47548;-79
2021/12/30 05:47:21;;;;;;;;;0.00;0.00;;;;;14.42;89.80;101413.38;5123346;27;45458;-79
2021/12/30 05:49:47;;;;;;;;;0.00;0.00;;;;;14.38;89.85;101407.53;5123535;27;45215;-79
2021/12/30 05:52:13;;;;;;;;;0.00;0.00;;;;;14.33;90.09;101410.75;5123280;27;45319;-79
2021/12/30 05:54:40;;;;;;;;;0.00;0.00;;;;;14.38;89.92;101419.06;5122716;27;46245;-79
2021/12/30 05:57:06;;;;;;;;;0.00;0.00;;;;;14.31;90.00;101414.63;5123016;27;45683;-79
2021/12/30 05:59:32;;;;;;;;;1.00;0.00;;;;;14.30;90.15;101424.50;5121857;27;45326;-79
2021/12/30 06:01:57;;;;;;;;;0.00;0.00;;;;;14.22;90.21;101430.75;5123100;27;45274;-79
2021/12/30 06:04:22;;;;;;;;;0.00;0.00;;;;;14.21;90.15;101421.06;5122984;27;45278;-79
2021/12/30 06:06:48;;;;;;;;;0.00;0.00;;;;;14.25;90.32;101427.72;5123118;27;45292;-79
2021/12/30 06:09:14;;;;;;;;;0.00;0.00;;;;;14.29;90.15;101451.41;5121869;27;45338;-79
2021/12/30 06:11:39;;;;;;;;;0.00;0.00;;;;;14.18;90.15;101431.28;5123010;27;45395;-79
2021/12/30 06:14:05;;;;;;;;;0.33;0.33;;;;;14.32;90.32;101467.94;5122471;27;46259;-80
2021/12/30 06:16:32;;;;;;;;;1.00;0.00;;;;;14.34;90.37;101460.53;5123046;27;45249;-79
2021/12/30 06:18:59;;;;;;;;;0.00;0.00;;;;;14.33;90.34;101468.75;5122969;27;45326;-79
2021/12/30 06:21:24;;;;;;;;;0.00;0.00;;;;;14.22;90.10;101445.97;5121357;27;47435;-78
2021/12/30 06:23:50;;;;;;;;;0.67;0.00;;;;;14.31;90.21;101460.09;5122611;27;46130;-79
2021/12/30 06:26:15;;;;;;;;;0.00;0.00;;;;;14.26;90.33;101463.31;5120547;27;45324;-79
2021/12/30 06:28:40;;;;;;;;;0.33;0.00;;;;;14.25;90.20;101462.47;5122577;27;45977;-79
2021/12/30 06:31:06;;;;;;;;;0.33;0.33;;;;;14.13;90.25;101450.56;5122621;27;45292;-79
2021/12/30 06:33:31;;;;;;;;;1.00;1.00;;;;;14.10;90.42;101453.59;5122557;27;45343;-79
2021/12/30 06:35:57;;;;;;;;;0.67;0.67;;;;;14.17;89.84;101465.22;5122530;27;45210;-79
2021/12/30 06:38:22;;;;;;;;;1.00;1.00;;;;;14.11;89.96;101457.91;5105907;27;45271;-79
2021/12/30 06:40:48;;;;;;;;;1.00;1.00;;;;;14.07;90.07;101453.94;5101850;27;45332;-79
2021/12/30 06:43:13;;;;;;;;;3.00;2.00;;;;;14.04;89.91;101467.66;5101491;27;45261;-79
2021/12/30 06:45:39;;;;;;;;;3.00;0.67;;;;;13.98;90.12;101462.03;5100496;27;45239;-79
2021/12/30 06:48:06;;;;;;;;;1.67;1.67;;;;;13.96;90.12;101465.88;5101958;27;45452;-79
2021/12/30 06:50:33;;;;;;;;;2.00;1.00;;;;;13.92;90.23;101467.25;5100366;27;47432;-79
2021/12/30 06:52:58;;;;;;;;;0.33;0.33;;;;;13.84;90.22;101470.81;5100025;27;46000;-79
2021/12/30 06:55:24;;;;;;;;;1.00;0.00;;;;;13.82;90.23;101475.50;5101439;27;45336;-79
2021/12/30 06:57:49;;;;;;;;;3.00;2.00;;;;;13.77;90.41;101481.41;5101578;27;45351;-79
2021/12/30 07:00:15;;;;;;;;;4.00;2.00;;;;;13.74;90.52;101481.75;5100058;27;46157;-79
2021/12/30 07:02:44;;;;;;;;;1.33;1.00;;;;;13.67;90.61;101478.09;5101428;27;45388;-79
2021/12/30 07:05:11;;;;;;;;;4.33;2.00;;;;;13.58;90.54;101477.31;5101219;27;45434;-78
2021/12/30 07:07:37;;;;;;;;;1.67;1.00;;;;;13.21;90.37;101412.94;5101489;27;45414;-80
2021/12/30 07:10:05;;;;;;;;;2.67;2.67;;;;;13.58;90.60;101472.81;5101274;27;45404;-79
2021/12/30 07:12:31;;;;;;;;;4.00;2.00;;;;;13.57;90.65;101489.03;5101052;27;46232;-79
2021/12/30 07:14:57;;;;;;;;;3.67;3.67;;;;;13.47;90.72;101479.34;5101227;27;45396;-79
2021/12/30 07:17:23;;;;;;;;;1.00;1.00;;;;;13.56;90.61;101500.72;5101380;27;45479;-79
2021/12/30 07:19:49;;;;;;;;;4.67;1.00;;;;;13.54;90.65;101500.06;5099869;27;45355;-79
2021/12/30 07:22:14;;;;;;;;;4.67;2.67;;;;;13.42;90.47;101484.41;5100611;27;45662;-78
2021/12/30 07:24:40;;;;;;;;;1.00;1.00;;;;;13.48;90.65;101510.41;5099568;27;45235;-79
2021/12/30 07:27:05;;;;;;;;;6.67;2.33;;;;;13.39;90.66;101506.94;5100970;27;45236;-79
2021/12/30 07:29:30;;;;;;;;;3.33;3.33;;;;;13.43;90.63;101506.59;5100535;27;45351;-80
2021/12/30 07:31:56;;;;;;;;;4.67;4.67;;;;;13.32;90.70;101494.47;5100944;27;45282;-79
2021/12/30 07:34:21;;;;;;;;;4.00;3.00;;;;;13.35;90.71;101512.81;5101047;27;45401;-79
2021/12/30 07:36:47;;;;;;;;;3.00;2.00;;;;;13.30;90.48;101517.81;5103965;27;45401;-79
2021/12/30 07:39:12;;;;;;;;;4.00;3.00;;;;;13.30;90.90;101510.66;5121619;27;45364;-79
2021/12/30 07:41:37;;;;;;;;;4.00;4.00;;;;;13.32;90.73;101523.84;5121327;27;45410;-79
2021/12/30 07:44:03;;;;;;;;;2.33;2.33;;;;;13.34;90.83;101529.81;5109473;27;45460;-78
2021/12/30 07:46:28;;;;;;;;;5.33;3.67;;;;;13.37;90.84;101522.31;5080479;28;45354;-78
2021/12/30 07:48:54;;;;;;;;;4.67;2.67;;;;;13.33;90.57;101518.31;5080326;27;45370;-79
2021/12/30 07:51:19;;;;;;;;;6.00;3.33;;;;;13.34;90.79;101521.81;5078913;28;47339;-79
2021/12/30 07:53:44;;;;;;;;;4.33;4.33;;;;;13.43;90.86;101530.59;5080126;27;45309;-80
2021/12/30 07:56:10;;;;;;;;;6.00;4.67;;;;;13.39;90.61;101514.13;5080365;27;45705;-80
2021/12/30 07:58:35;;;;;;;;;2.00;2.00;;;;;13.34;90.55;101505.78;5079939;27;45476;-80
2021/12/30 08:01:01;;;;;;;;;5.33;3.00;;;;;13.40;90.44;101518.44;5079967;27;45312;-81
2021/12/30 08:03:26;;;;;;;;;5.33;3.00;;;;;13.48;90.49;101533.59;5079931;27;45322;-79
2021/12/30 08:05:52;;;;;;;;;5.00;4.67;;;;;13.43;90.35;101520.78;5080150;27;45690;-80
2021/12/30 08:08:17;;;;;;;;;5.67;3.33;;;;;13.59;90.10;101546.59;5080013;27;45491;-80
2021/12/30 08:10:44;;;;;;;;;9.67;6.33;;;;;13.61;90.06;101549.94;5080045;27;45554;-79
2021/12/30 08:13:09;;;;;;;;;3.67;3.33;;;;;13.61;89.94;101541.91;5078506;28;45338;-79
2021/12/30 08:15:34;;;;;;;;;4.00;4.00;;;;;13.61;89.93;101551.75;5080043;27;45305;-78
2021/12/30 08:18:00;;;;;;;;;5.67;4.33;;;;;13.66;89.85;101549.41;5079923;27;45434;-77
2021/12/30 08:20:27;;;;;;;;;3.67;3.67;;;;;13.68;89.87;101557.25;5079784;27;45350;-79
2021/12/30 08:22:53;;;;;;;;;5.67;4.33;;;;;13.56;89.75;101546.13;5078476;28;45377;-79
2021/12/30 08:25:19;;;;;;;;;3.33;3.00;;;;;13.64;89.39;101559.44;5079843;27;45277;-80
2021/12/30 08:27:45;;;;;;;;;8.67;6.33;;;;;13.71;89.57;101576.41;5081885;27;45534;-80
2021/12/30 08:30:14;;;;;;;;;5.00;3.67;;;;;13.72;89.66;101577.25;5088130;27;45415;-78
2021/12/30 08:32:41;;;;;;;;;2.00;2.00;;;;;13.69;89.42;101580.28;5085910;27;45384;-77
2021/12/30 08:35:08;;;;;;;;;6.33;3.67;;;;;13.69;89.54;101578.44;5088065;27;45308;-78
2021/12/30 08:37:34;;;;;;;;;6.00;5.00;;;;;13.74;89.61;101586.75;5087659;27;47093;-79
2021/12/30 08:40:02;;;;;;;;;4.00;3.67;;;;;13.80;89.32;101595.09;5085764;27;46032;-77
2021/12/30 08:42:29;;;;;;;;;4.00;3.00;;;;;13.73;89.24;101576.25;5095733;27;45869;-78
2021/12/30 08:44:58;;;;;;;;;4.67;2.67;;;;;13.72;89.15;101582.59;5091517;27;45406;-76
2021/12/30 08:47:24;;;;;;;;;6.33;3.00;;;;;13.83;89.24;101597.41;5089961;27;45437;-77
2021/12/30 08:49:50;;;;;;;;;3.00;3.00;;;;;13.84;88.96;101599.06;5099266;27;45296;-77
2021/12/30 08:52:19;;;;;;;;;2.33;2.33;;;;;13.86;89.04;101613.91;5093613;27;45350;-79
2021/12/30 08:54:49;;;;;;;;;6.00;2.67;;;;;13.79;88.98;101598.75;5093785;27;45358;-77
2021/12/30 08:57:16;;;;;;;;;3.00;3.00;;;;;13.90;88.75;101614.41;5086623;27;45550;-77
2021/12/30 08:59:42;;;;;;;;;4.00;3.00;;;;;13.86;88.92;101613.09;5092465;27;46120;-77
2021/12/30 09:02:08;;;;;;;;;7.00;6.33;;;;;13.86;88.75;101610.44;5089341;27;45346;-78
2021/12/30 09:04:34;;;;;;;;;4.33;4.00;;;;;13.88;88.41;101611.06;5090564;27;45153;-76
2021/12/30 09:07:01;;;;;;;;;3.67;2.00;;;;;13.86;87.88;101616.59;5091119;27;45230;-77
2021/12/30 09:09:27;;;;;;;;;5.00;4.00;;;;;13.88;88.32;101632.44;5092262;27;45294;-76
2021/12/30 09:11:53;;;;;;;;;5.33;4.67;;;;;13.88;88.45;101635.97;5095487;27;45787;-77
2021/12/30 09:14:19;;;;;;;;;4.67;3.00;;;;;13.89;88.21;101634.94;5088815;27;45363;-77
2021/12/30 09:16:44;;;;;;;;;5.67;4.33;;;;;13.82;88.40;101620.63;5091439;27;45450;-78
2021/12/30 09:19:10;;;;;;;;;5.67;4.67;;;;;13.84;87.99;101634.66;5091300;27;46313;-77
2021/12/30 09:21:38;;;;;;;;;6.00;4.00;;;;;13.93;88.20;101639.94;5089997;27;45845;-77
2021/12/30 09:24:04;;;;;;;;;4.67;4.33;;;;;13.95;87.96;101633.41;5100856;27;45349;-76
2021/12/30 09:26:29;;;;;;;;;6.00;4.00;;;;;13.90;88.17;101625.09;5092703;27;45420;-77
2021/12/30 09:28:55;;;;;;;;;7.00;4.67;;;;;13.90;87.82;101617.09;5089851;27;45199;-79
2021/12/30 09:31:20;;;;;;;;;4.00;4.00;;;;;13.88;88.17;101611.91;5093835;27;45372;-78
2021/12/30 09:33:45;;;;;;;;;8.67;5.33;;;;;14.01;88.14;101635.38;5087152;27;45225;-76
2021/12/30 09:36:11;;;;;;;;;5.00;5.00;;;;;14.01;87.66;101632.72;5097775;27;45287;-78
2021/12/30 09:38:36;;;;;;;;;5.33;5.00;;;;;13.98;87.80;101624.22;5104788;27;46275;-77
2021/12/30 09:41:02;;;;;;;;;6.67;6.67;;;;;14.00;87.90;101628.38;5091877;27;45329;-77
2021/12/30 09:43:27;;;;;;;;;6.00;6.00;;;;;14.08;87.65;101643.53;5091495;27;45369;-78
2021/12/30 09:45:52;;;;;;;;;4.67;4.67;;;;;14.13;87.72;101640.34;5090645;27;46244;-77
2021/12/30 09:48:18;;;;;;;;;5.00;4.00;;;;;14.12;87.57;101639.50;5091225;27;45399;-77
2021/12/30 09:50:47;;;;;;;;;5.00;5.00;;;;;14.17;87.29;101641.66;5089675;27;45404;-77
2021/12/30 09:53:13;;;;;;;;;7.00;5.67;;;;;14.21;87.42;101640.28;5094788;27;45380;-77
2021/12/30 09:55:39;;;;;;;;;5.33;5.33;;;;;14.23;87.12;101640.97;5097000;27;45992;-77
2021/12/30 09:58:06;;;;;;;;;4.00;4.00;;;;;14.25;87.22;101644.28;5089974;27;47296;-77
2021/12/30 10:00:32;;;;;;;;;7.00;5.00;;;;;14.30;87.41;101645.59;5079343;27;45682;-76
2021/12/30 10:02:58;;;;;;;;;6.00;4.00;;;;;14.29;87.30;101643.91;5079004;28;45370;-76
2021/12/30 10:05:29;;;;;;;;;6.00;6.00;;;;;14.36;87.10;101653.72;5079265;27;45385;-77
2021/12/30 10:08:12;;;;;;;;;4.67;4.33;;;;;14.39;86.91;101652.53;5080337;28;46844;-77
2021/12/30 10:10:39;;;;;;;;;7.33;5.33;;;;;14.35;86.79;101643.22;5079581;28;45306;-78
2021/12/30 10:13:40;;;;;;;;;6.00;6.00;;;;;14.41;86.81;101644.34;5096913;27;45314;-77
2021/12/30 10:16:15;;;;;;;;;4.67;4.00;;;;;14.42;86.86;101638.81;5074897;27;47088;-76
2021/12/30 10:18:48;;;;;;;;;6.00;4.00;;;;;14.46;86.54;101658.03;5080956;28;45914;-77
2021/12/30 10:21:19;;;;;;;;;7.00;5.67;;;;;14.43;86.58;101645.00;5081257;28;45299;-79
2021/12/30 10:23:48;;;;;;;;;5.00;5.00;;;;;14.49;86.59;101657.69;5081599;27;45235;-77
2021/12/30 10:26:16;;;;;;;;;6.00;5.67;;;;;14.44;86.46;101658.19;5081237;27;45381;-79
2021/12/30 10:28:43;;;;;;;;;6.33;5.33;;;;;14.54;86.58;101667.84;5080282;27;45542;-77
2021/12/30 10:31:11;;;;;;;;;6.33;6.00;;;;;14.58;86.55;101669.16;5098444;27;45321;-76
2021/12/30 10:33:59;;;;;;;;;6.67;6.00;;;;;14.55;86.45;101666.81;5105452;27;45529;-76
2021/12/30 10:36:28;;;;;;;;;6.33;6.33;;;;;14.61;86.50;101674.13;5118808;27;46273;-77
2021/12/30 10:38:55;;;;;;;;;10.67;6.67;;;;;14.62;86.09;101673.13;5109618;27;47323;-77
2021/12/30 10:41:24;;;;;;;;;4.67;4.67;;;;;14.65;86.21;101675.44;5120825;27;45430;-77
2021/12/30 10:43:57;;;;;;;;;7.00;4.00;;;;;14.71;86.45;101665.88;5101962;27;45338;-79
2021/12/30 10:46:25;;;;;;;;;10.00;7.67;;;;;14.71;86.05;101655.16;5091586;27;45404;-78
2021/12/30 10:48:50;;;;;;;;;5.67;5.00;;;;;14.75;86.14;101659.97;5090536;27;45299;-77
2021/12/30 10:51:24;;;;;;;;;10.00;5.00;;;;;14.80;86.36;101648.78;5081141;27;45448;-78
2021/12/30 10:53:54;;;;;;;;;4.00;4.00;;;;;14.91;85.93;101658.22;5089959;27;45302;-78
2021/12/30 10:56:25;;;;;;;;;10.00;7.00;;;;;14.95;85.78;101664.03;5090324;27;45465;-78
2021/12/30 10:58:54;;;;;;;;;5.00;4.67;;;;;14.83;85.47;101656.44;5099462;27;45419;-77
2021/12/30 11:01:21;;;;;;;;;8.00;6.00;;;;;14.84;85.70;101657.25;5101168;27;45308;-77
2021/12/30 11:04:00;;;;;;;;;9.33;6.67;;;;;14.95;85.54;101669.38;5096173;27;46344;-76
2021/12/30 11:06:27;;;;;;;;;7.00;5.00;;;;;14.95;85.34;101672.06;5080770;28;45927;-76
2021/12/30 11:09:20;;;;;;;;;5.00;5.00;;;;;14.94;85.41;101676.59;5089000;27;46106;-76
2021/12/30 11:12:03;;;;;;;;;7.67;5.33;;;;;14.83;85.32;101651.09;5083233;27;45332;-77
2021/12/30 11:14:37;;;;;;;;;5.33;3.33;;;;;14.93;85.18;101672.22;5096261;27;45448;-77
2021/12/30 11:17:17;;;;;;;;;;;;;;;;;;;;;
2021/12/30 11:31:09;;;;;;;;;4.67;4.67;;;;;14.73;84.86;101587.06;5056306;28;45407;-76
2021/12/30 11:34:42;;;;;;;;;5.00;4.00;;;;;14.85;85.03;101606.22;5040576;28;45726;-77
2021/12/30 11:38:09;;;;;;;;;6.00;6.00;;;;;14.81;84.96;101580.84;5044870;28;45415;-78
2021/12/30 11:41:35;;;;;;;;;;;;;;;;;;;;;
2021/12/30 11:44:27;;;;;;;;;4.00;4.00;;;;;15.29;84.63;101659.22;4995962;28;45633;-77